Maersk Daesan — A8HN7 — position and weather

sailwx.info

Track history (hours):
 
Tides and Currents Weather Stations Pressure Air Temp Water Temp Dewpoint Dewpoint Depression Visibility Wind Speed Wind Dir Waves Ship Positions

Maersk Daesan

Last reported at 2017-Dec-16 21:17 UTC. Time now 2017-Dec-17 19:44 UTC.
Position N 01°12' E 103°54'.

Length 294.1 m; beam 32.2 m; draft 13.5 m.

Type: Cargo ship. MMSI: 636090923.

Date/timePositionNaut miles runAvg speedWind from/ knotsBaromVisibWave heightAir tempDewpointWater temp
2017-Dec-16 21:17N 01°12' E 103°54'414.0
2017-Dec-16 21:00N 01°11' E 103°51'612.3
2017-Dec-16 20:30N 01°07' E 103°46'713.3
2017-Dec-16 20:00N 01°03' E 103°40'713.8
2017-Dec-16 19:30N 01°05' E 103°34'815.3
2017-Dec-16 19:00N 01°09' E 103°27'815.1
2017-Dec-16 18:29N 01°14' E 103°21'2 0.1
2017-Dec-15 04:12N 01°16' E 103°23'317.3
2017-Dec-15 04:00N 01°14' E 103°26'2214.4
2017-Dec-15 02:30N 01°10' E 103°47'7 4.5
2017-Dec-15 00:59N 01°17' E 103°47'0 0.0
2017-Dec-15 00:30N 01°17' E 103°47'0 0.0
2017-Dec-14 18:31N 01°17' E 103°47'0 0.0
2017-Dec-14 18:00N 01°17' E 103°47'0 0.0
2017-Dec-14 17:30N 01°17' E 103°47'0 0.0
2017-Dec-14 17:00N 01°17' E 103°47'0 0.0
2017-Dec-14 16:30N 01°17' E 103°47'0 0.0
2017-Dec-14 16:00N 01°17' E 103°47'0 0.0
2017-Dec-14 15:00N 01°17' E 103°47'0 0.0
2017-Dec-14 14:30N 01°17' E 103°47'0 0.0
2017-Dec-14 14:00N 01°17' E 103°47'0 0.0
2017-Dec-14 13:30N 01°17' E 103°47'0 0.0
2017-Dec-14 13:00N 01°17' E 103°47'0 0.0
2017-Dec-14 12:30N 01°17' E 103°47'0 0.0
2017-Dec-14 12:00N 01°17' E 103°47'0 0.0
2017-Dec-14 11:30N 01°17' E 103°47'0 1.0
2017-Dec-14 11:00N 01°16' E 103°47'4 8.2
2017-Dec-14 10:30N 01°13' E 103°49'3 6.8
2017-Dec-14 10:00N 01°16' E 103°51'1 1.2
2017-Dec-14 09:30N 01°16' E 103°50'0 0.0
2017-Dec-14 09:00N 01°16' E 103°50'0 0.0
2017-Dec-14 08:30N 01°16' E 103°50'0 0.0
2017-Dec-14 08:00N 01°16' E 103°50'0 0.0
2017-Dec-14 07:30N 01°16' E 103°50'0 0.0
2017-Dec-14 07:00N 01°16' E 103°50'0 0.0
2017-Dec-14 06:30N 01°16' E 103°50'0 0.0
2017-Dec-14 06:00N 01°16' E 103°50'0 0.0
2017-Dec-14 05:30N 01°16' E 103°50'0 0.0
2017-Dec-14 05:00N 01°16' E 103°50'0 0.0
2017-Dec-14 04:30N 01°16' E 103°50'0 0.0
2017-Dec-14 04:00N 01°16' E 103°50'0 0.0
2017-Dec-14 03:30N 01°16' E 103°50'0 0.0
2017-Dec-14 03:00N 01°16' E 103°50'0 0.0
2017-Dec-14 02:30N 01°16' E 103°50'0 0.0
2017-Dec-14 02:00N 01°16' E 103°50'0 0.0
2017-Dec-14 01:30N 01°16' E 103°50'0 0.0
2017-Dec-14 01:00N 01°16' E 103°50'0 0.0
2017-Dec-14 00:30N 01°16' E 103°50'0 0.0
2017-Dec-14 00:00N 01°16' E 103°50'0 0.0
2017-Dec-13 23:30N 01°16' E 103°50'0 0.0
2017-Dec-13 23:00N 01°16' E 103°50'0 0.0
2017-Dec-13 22:30N 01°16' E 103°50'0 0.0
2017-Dec-13 22:00N 01°16' E 103°50'0 0.0
2017-Dec-13 21:30N 01°16' E 103°50'0 0.0
2017-Dec-13 21:00N 01°16' E 103°50'0 0.1
2017-Dec-13 20:30N 01°16' E 103°50'1 2.7
2017-Dec-13 20:00N 01°15' E 103°51'2 2.9
2017-Dec-13 19:28N 01°15' E 103°53'0 0.1
2017-Dec-13 18:58N 01°15' E 103°53'0 0.0
2017-Dec-13 18:25N 01°15' E 103°53'0 0.1
2017-Dec-13 17:55N 01°15' E 103°53'0 0.0
2017-Dec-13 17:25N 01°15' E 103°53'0 0.0
2017-Dec-13 16:58N 01°15' E 103°53'0 0.1
2017-Dec-13 16:28N 01°15' E 103°53'0 0.0
2017-Dec-13 15:55N 01°15' E 103°53'0 0.0
2017-Dec-13 15:25N 01°15' E 103°53'0 0.0
2017-Dec-13 14:46N 01°15' E 103°53'0 0.0
2017-Dec-13 14:28N 01°15' E 103°53'0 0.1
2017-Dec-13 13:46N 01°15' E 103°53'0 0.0
2017-Dec-13 13:28N 01°15' E 103°53'0 0.0
2017-Dec-13 12:58N 01°15' E 103°53'0 0.0
2017-Dec-13 12:28N 01°15' E 103°53'0 0.0
2017-Dec-13 11:55N 01°15' E 103°53'0 0.0
2017-Dec-13 11:10N 01°15' E 103°53'0 0.3
2017-Dec-13 10:58N 01°15' E 103°53'0 0.0
2017-Dec-13 10:22N 01°15' E 103°53'0 0.0
2017-Dec-13 09:56N 01°15' E 103°53'0 0.1
2017-Dec-13 09:28N 01°15' E 103°53'0 0.1
2017-Dec-13 08:58N 01°15' E 103°53'0 0.4
2017-Dec-13 08:28N 01°15' E 103°53'0 0.4
2017-Dec-13 07:55N 01°15' E 103°53'0 0.0
2017-Dec-13 07:28N 01°15' E 103°53'0 0.1
2017-Dec-13 06:55N 01°15' E 103°53'0 0.0
2017-Dec-13 06:25N 01°15' E 103°53'0 0.0
2017-Dec-13 06:01N 01°15' E 103°53'0 0.1
2017-Dec-13 05:28N 01°15' E 103°53'0 0.4
2017-Dec-13 05:01N 01°15' E 103°53'0 0.1
2017-Dec-13 04:24N 01°15' E 103°53'0 0.2
2017-Dec-13 04:00N 01°15' E 103°53'0 0.0
2017-Dec-13 03:24N 01°15' E 103°53'0 0.0
2017-Dec-13 03:00N 01°15' E 103°53'0 0.0
2017-Dec-13 02:30N 01°15' E 103°53'0 0.1
2017-Dec-13 02:00N 01°15' E 103°53'0 0.0
2017-Dec-13 01:30N 01°15' E 103°53'0 0.0
2017-Dec-13 01:00N 01°15' E 103°53'0 0.1
2017-Dec-13 00:27N 01°15' E 103°53'0 0.0
2017-Dec-13 00:00N 01°15' E 103°53'0 0.0
2017-Dec-12 23:24N 01°15' E 103°53'0 0.0
2017-Dec-12 22:57N 01°15' E 103°53'0 0.0
2017-Dec-12 22:24N 01°15' E 103°53'0 0.0
2017-Dec-12 22:00N 01°15' E 103°53'0 0.0
2017-Dec-12 21:30N 01°15' E 103°53'0 0.0
2017-Dec-12 21:00N 01°15' E 103°53'0 0.0
2017-Dec-12 20:30N 01°15' E 103°53'0 0.0
2017-Dec-12 20:00N 01°15' E 103°53'0 0.0
2017-Dec-12 19:30N 01°15' E 103°53'0 0.0
2017-Dec-12 19:00N 01°15' E 103°53'0 0.0
2017-Dec-12 18:30N 01°15' E 103°53'0 0.1
2017-Dec-12 17:54N 01°15' E 103°53'0 0.1
2017-Dec-12 17:30N 01°15' E 103°53'2 3.7
2017-Dec-12 17:00N 01°14' E 103°54'3 5.1
2017-Dec-12 16:30N 01°14' E 103°57'510.5
2017-Dec-12 16:00N 01°16' E 104°02'510.8
2017-Dec-12 15:30N 01°16' E 104°07'  
Track history (hours):
 
Tides and Currents Weather Stations Pressure Air Temp Water Temp Dewpoint Dewpoint Depression Visibility Wind Speed Wind Dir Waves Ship Positions

Maersk Daesan

Last reported at 2017-Dec-16 21:17 UTC. Time now 2017-Dec-17 19:44 UTC.
Position N 01°12' E 103°54'.

Length 294.1 m; beam 32.2 m; draft 13.5 m.

Type: Cargo ship. MMSI: 636090923.

Date/timePositionNaut miles runAvg speedWind from/ knotsBaromVisibWave heightAir tempDewpointWater temp
2017-Dec-16 21:17N 01°12' E 103°54'414.0
2017-Dec-16 21:00N 01°11' E 103°51'612.3
2017-Dec-16 20:30N 01°07' E 103°46'713.3
2017-Dec-16 20:00N 01°03' E 103°40'713.8
2017-Dec-16 19:30N 01°05' E 103°34'815.3
2017-Dec-16 19:00N 01°09' E 103°27'815.1
2017-Dec-16 18:29N 01°14' E 103°21'2 0.1
2017-Dec-15 04:12N 01°16' E 103°23'317.3
2017-Dec-15 04:00N 01°14' E 103°26'2214.4
2017-Dec-15 02:30N 01°10' E 103°47'7 4.5
2017-Dec-15 00:59N 01°17' E 103°47'0 0.0
2017-Dec-15 00:30N 01°17' E 103°47'0 0.0
2017-Dec-14 18:31N 01°17' E 103°47'0 0.0
2017-Dec-14 18:00N 01°17' E 103°47'0 0.0
2017-Dec-14 17:30N 01°17' E 103°47'0 0.0
2017-Dec-14 17:00N 01°17' E 103°47'0 0.0
2017-Dec-14 16:30N 01°17' E 103°47'0 0.0
2017-Dec-14 16:00N 01°17' E 103°47'0 0.0
2017-Dec-14 15:00N 01°17' E 103°47'0 0.0
2017-Dec-14 14:30N 01°17' E 103°47'0 0.0
2017-Dec-14 14:00N 01°17' E 103°47'0 0.0
2017-Dec-14 13:30N 01°17' E 103°47'0 0.0
2017-Dec-14 13:00N 01°17' E 103°47'0 0.0
2017-Dec-14 12:30N 01°17' E 103°47'0 0.0
2017-Dec-14 12:00N 01°17' E 103°47'0 0.0
2017-Dec-14 11:30N 01°17' E 103°47'0 1.0
2017-Dec-14 11:00N 01°16' E 103°47'4 8.2
2017-Dec-14 10:30N 01°13' E 103°49'3 6.8
2017-Dec-14 10:00N 01°16' E 103°51'1 1.2
2017-Dec-14 09:30N 01°16' E 103°50'0 0.0
2017-Dec-14 09:00N 01°16' E 103°50'0 0.0
2017-Dec-14 08:30N 01°16' E 103°50'0 0.0
2017-Dec-14 08:00N 01°16' E 103°50'0 0.0
2017-Dec-14 07:30N 01°16' E 103°50'0 0.0
2017-Dec-14 07:00N 01°16' E 103°50'0 0.0
2017-Dec-14 06:30N 01°16' E 103°50'0 0.0
2017-Dec-14 06:00N 01°16' E 103°50'0 0.0
2017-Dec-14 05:30N 01°16' E 103°50'0 0.0
2017-Dec-14 05:00N 01°16' E 103°50'0 0.0
2017-Dec-14 04:30N 01°16' E 103°50'0 0.0
2017-Dec-14 04:00N 01°16' E 103°50'0 0.0
2017-Dec-14 03:30N 01°16' E 103°50'0 0.0
2017-Dec-14 03:00N 01°16' E 103°50'0 0.0
2017-Dec-14 02:30N 01°16' E 103°50'0 0.0
2017-Dec-14 02:00N 01°16' E 103°50'0 0.0
2017-Dec-14 01:30N 01°16' E 103°50'0 0.0
2017-Dec-14 01:00N 01°16' E 103°50'0 0.0
2017-Dec-14 00:30N 01°16' E 103°50'0 0.0
2017-Dec-14 00:00N 01°16' E 103°50'0 0.0
2017-Dec-13 23:30N 01°16' E 103°50'0 0.0
2017-Dec-13 23:00N 01°16' E 103°50'0 0.0
2017-Dec-13 22:30N 01°16' E 103°50'0 0.0
2017-Dec-13 22:00N 01°16' E 103°50'0 0.0
2017-Dec-13 21:30N 01°16' E 103°50'0 0.0
2017-Dec-13 21:00N 01°16' E 103°50'0 0.1
2017-Dec-13 20:30N 01°16' E 103°50'1 2.7
2017-Dec-13 20:00N 01°15' E 103°51'2 2.9
2017-Dec-13 19:28N 01°15' E 103°53'0 0.1
2017-Dec-13 18:58N 01°15' E 103°53'0 0.0
2017-Dec-13 18:25N 01°15' E 103°53'0 0.1
2017-Dec-13 17:55N 01°15' E 103°53'0 0.0
2017-Dec-13 17:25N 01°15' E 103°53'0 0.0
2017-Dec-13 16:58N 01°15' E 103°53'0 0.1
2017-Dec-13 16:28N 01°15' E 103°53'0 0.0
2017-Dec-13 15:55N 01°15' E 103°53'0 0.0
2017-Dec-13 15:25N 01°15' E 103°53'0 0.0
2017-Dec-13 14:46N 01°15' E 103°53'0 0.0
2017-Dec-13 14:28N 01°15' E 103°53'0 0.1
2017-Dec-13 13:46N 01°15' E 103°53'0 0.0
2017-Dec-13 13:28N 01°15' E 103°53'0 0.0
2017-Dec-13 12:58N 01°15' E 103°53'0 0.0
2017-Dec-13 12:28N 01°15' E 103°53'0 0.0
2017-Dec-13 11:55N 01°15' E 103°53'0 0.0
2017-Dec-13 11:10N 01°15' E 103°53'0 0.3
2017-Dec-13 10:58N 01°15' E 103°53'0 0.0
2017-Dec-13 10:22N 01°15' E 103°53'0 0.0
2017-Dec-13 09:56N 01°15' E 103°53'0 0.1
2017-Dec-13 09:28N 01°15' E 103°53'0 0.1
2017-Dec-13 08:58N 01°15' E 103°53'0 0.4
2017-Dec-13 08:28N 01°15' E 103°53'0 0.4
2017-Dec-13 07:55N 01°15' E 103°53'0 0.0
2017-Dec-13 07:28N 01°15' E 103°53'0 0.1
2017-Dec-13 06:55N 01°15' E 103°53'0 0.0
2017-Dec-13 06:25N 01°15' E 103°53'0 0.0
2017-Dec-13 06:01N 01°15' E 103°53'0 0.1
2017-Dec-13 05:28N 01°15' E 103°53'0 0.4
2017-Dec-13 05:01N 01°15' E 103°53'0 0.1
2017-Dec-13 04:24N 01°15' E 103°53'0 0.2
2017-Dec-13 04:00N 01°15' E 103°53'0 0.0
2017-Dec-13 03:24N 01°15' E 103°53'0 0.0
2017-Dec-13 03:00N 01°15' E 103°53'0 0.0
2017-Dec-13 02:30N 01°15' E 103°53'0 0.1
2017-Dec-13 02:00N 01°15' E 103°53'0 0.0
2017-Dec-13 01:30N 01°15' E 103°53'0 0.0
2017-Dec-13 01:00N 01°15' E 103°53'0 0.1
2017-Dec-13 00:27N 01°15' E 103°53'0 0.0
2017-Dec-13 00:00N 01°15' E 103°53'0 0.0
2017-Dec-12 23:24N 01°15' E 103°53'0 0.0
2017-Dec-12 22:57N 01°15' E 103°53'0 0.0
2017-Dec-12 22:24N 01°15' E 103°53'0 0.0
2017-Dec-12 22:00N 01°15' E 103°53'0 0.0
2017-Dec-12 21:30N 01°15' E 103°53'0 0.0
2017-Dec-12 21:00N 01°15' E 103°53'0 0.0
2017-Dec-12 20:30N 01°15' E 103°53'0 0.0
2017-Dec-12 20:00N 01°15' E 103°53'0 0.0
2017-Dec-12 19:30N 01°15' E 103°53'0 0.0
2017-Dec-12 19:00N 01°15' E 103°53'0 0.0
2017-Dec-12 18:30N 01°15' E 103°53'0 0.1
2017-Dec-12 17:54N 01°15' E 103°53'0 0.1
2017-Dec-12 17:30N 01°15' E 103°53'2 3.7
2017-Dec-12 17:00N 01°14' E 103°54'3 5.1
2017-Dec-12 16:30N 01°14' E 103°57'510.5
2017-Dec-12 16:00N 01°16' E 104°02'510.8
2017-Dec-12 15:30N 01°16' E 104°07'  

Dump ship's entire track history